Time;durP1;ratioP1;P1;durP2;ratioP2;P2;SDS_P1;SDS_P2;PMS_P1;PMS_P2;Temp;Humidity;BMP_temperature;BMP_pressure;BME280_temperature;BME280_humidity;BME280_pressure;Samples;Min_cycle;Max_cycle;Signal;HPM_P1;HPM_P2
2021/04/06 00:00:17;;;;;;;1.05;0.40;;;2.80;78.90;;;;;;5100797;28;20027;-74
2021/04/06 00:02:47;;;;;;;1.45;0.30;;;2.70;78.90;;;;;;5118478;28;20035;-74
2021/04/06 00:05:15;;;;;;;1.42;0.25;;;2.80;79.00;;;;;;5118496;28;20047;-74
2021/04/06 00:07:42;;;;;;;1.10;0.40;;;2.90;79.00;;;;;;5114794;28;20404;-74
2021/04/06 00:10:15;;;;;;;5.75;0.60;;;2.90;79.00;;;;;;5114893;28;20074;-75
2021/04/06 00:12:43;;;;;;;2.45;0.63;;;2.80;78.90;;;;;;5115449;28;20048;-74
2021/04/06 00:15:11;;;;;;;1.58;0.28;;;2.80;78.90;;;;;;5115405;28;20470;-74
2021/04/06 00:17:42;;;;;;;0.98;0.22;;;2.80;79.00;;;;;;5115325;28;20039;-74
2021/04/06 00:20:08;;;;;;;0.98;0.30;;;2.80;79.20;;;;;;5114805;28;20036;-74
2021/04/06 00:22:36;;;;;;;0.63;0.20;;;2.70;79.30;;;;;;5114995;28;20819;-74
2021/04/06 00:25:05;;;;;;;0.40;0.30;;;2.70;79.40;;;;;;5115208;28;20118;-74
2021/04/06 00:27:35;;;;;;;0.43;0.40;;;2.80;79.50;;;;;;5114689;28;20085;-74
2021/04/06 00:30:08;;;;;;;0.47;0.20;;;2.70;79.50;;;;;;5114770;28;20092;-75
2021/04/06 00:32:35;;;;;;;1.85;0.25;;;2.60;79.60;;;;;;5114440;28;20047;-74
2021/04/06 00:35:03;;;;;;;1.17;0.28;;;2.60;79.70;;;;;;5114650;28;20371;-74
2021/04/06 00:37:30;;;;;;;1.17;0.20;;;2.60;79.90;;;;;;5114580;28;20042;-75
2021/04/06 00:40:07;;;;;;;0.50;0.20;;;2.60;80.00;;;;;;5096184;28;20096;-75
2021/04/06 00:42:34;;;;;;;0.40;0.30;;;2.60;80.10;;;;;;5114869;28;20048;-74
2021/04/06 00:45:10;;;;;;;0.28;0.10;;;2.60;80.10;;;;;;5114559;28;20120;-74
2021/04/06 00:47:36;;;;;;;1.88;0.40;;;2.60;80.20;;;;;;5114799;28;20050;-75
2021/04/06 00:50:07;;;;;;;0.98;0.30;;;2.60;80.10;;;;;;5114432;28;20040;-74
2021/04/06 00:52:33;;;;;;;1.67;0.55;;;2.60;80.10;;;;;;5114098;28;20532;-74
2021/04/06 00:55:00;;;;;;;1.30;0.40;;;2.60;80.00;;;;;;5114622;28;20066;-74
2021/04/06 00:57:28;;;;;;;2.00;0.30;;;2.70;79.90;;;;;;5096114;28;20507;-75
2021/04/06 01:00:16;;;;;;;0.40;0.30;;;2.70;79.70;;;;;;5114030;28;20131;-75
2021/04/06 01:03:03;;;;;;;0.82;0.50;;;2.70;79.70;;;;;;5114395;28;20048;-75
2021/04/06 01:05:31;;;;;;;2.67;0.60;;;2.80;79.60;;;;;;5114003;28;20123;-74
2021/04/06 01:07:57;;;;;;;1.55;0.43;;;2.70;79.50;;;;;;5114306;28;20482;-74
2021/04/06 01:10:26;;;;;;;3.78;0.57;;;2.80;79.60;;;;;;5114575;28;20508;-75
2021/04/06 01:12:52;;;;;;;2.45;0.90;;;2.70;79.50;;;;;;5113874;28;20040;-75
2021/04/06 01:15:18;;;;;;;1.20;0.47;;;2.80;79.70;;;;;;5113897;28;20096;-75
2021/04/06 01:17:45;;;;;;;2.42;0.70;;;2.70;80.30;;;;;;5113597;28;20032;-74
2021/04/06 01:20:15;;;;;;;2.15;0.50;;;2.60;79.80;;;;;;5113271;28;20031;-74
2021/04/06 01:22:43;;;;;;;4.57;1.05;;;2.60;80.00;;;;;;5113961;28;20043;-75
2021/04/06 01:25:22;;;;;;;1.98;0.55;;;2.60;80.10;;;;;;5095873;28;20055;-75
2021/04/06 01:27:49;;;;;;;2.50;0.50;;;2.50;80.20;;;;;;5114115;28;20173;-74
2021/04/06 01:30:21;;;;;;;1.85;0.50;;;2.50;80.40;;;;;;5113715;28;20048;-75
2021/04/06 01:32:48;;;;;;;1.70;0.40;;;2.40;80.40;;;;;;5096175;28;20043;-75
2021/04/06 01:35:14;;;;;;;2.58;0.60;;;2.40;80.50;;;;;;5095004;28;20126;-74
2021/04/06 01:37:39;;;;;;;2.78;0.70;;;2.40;80.50;;;;;;5113971;28;20127;-75
2021/04/06 01:40:06;;;;;;;2.60;0.47;;;2.40;80.60;;;;;;5113504;28;20035;-74
2021/04/06 01:42:35;;;;;;;1.55;0.38;;;2.30;80.50;;;;;;5113531;28;20039;-75
2021/04/06 01:45:07;;;;;;;1.00;0.50;;;2.50;80.50;;;;;;5079101;28;20044;-74
2021/04/06 01:47:33;;;;;;;1.13;0.38;;;2.40;80.50;;;;;;5113444;28;20126;-75
2021/04/06 01:50:00;;;;;;;5.32;0.60;;;2.40;80.50;;;;;;5113287;28;20504;-74
2021/04/06 01:52:27;;;;;;;2.08;0.50;;;2.50;80.50;;;;;;5113194;28;20040;-74
2021/04/06 01:54:56;;;;;;;1.70;0.30;;;2.50;80.40;;;;;;5113208;28;20040;-74
2021/04/06 01:57:30;;;;;;;1.63;0.60;;;2.50;80.30;;;;;;5095933;28;20039;-74
2021/04/06 01:59:59;;;;;;;3.15;0.77;;;2.60;80.20;;;;;;5113165;28;20035;-75
2021/04/06 02:02:26;;;;;;;3.67;0.77;;;2.50;80.10;;;;;;5113290;28;20141;-74
2021/04/06 02:05:00;;;;;;;2.00;0.50;;;2.60;80.20;;;;;;5112924;28;20532;-74
2021/04/06 02:07:33;;;;;;;1.15;0.60;;;2.60;80.10;;;;;;5113095;28;20542;-75
2021/04/06 02:09:59;;;;;;;2.60;0.70;;;2.60;80.10;;;;;;5112992;28;20039;-74
2021/04/06 02:12:25;;;;;;;3.65;0.70;;;2.60;80.00;;;;;;5112997;28;20095;-74
2021/04/06 02:14:57;;;;;;;2.10;0.25;;;2.60;80.10;;;;;;5092833;28;20170;-74
2021/04/06 02:17:23;;;;;;;0.73;0.30;;;2.60;80.00;;;;;;5112756;28;20069;-74
2021/04/06 02:19:48;;;;;;;2.13;0.60;;;2.60;80.10;;;;;;5112926;28;20112;-74
2021/04/06 02:22:17;;;;;;;2.03;0.47;;;2.50;80.10;;;;;;5113360;28;20359;-74
2021/04/06 02:24:46;;;;;;;1.92;0.40;;;2.50;80.10;;;;;;5112546;28;20113;-74
2021/04/06 02:27:29;;;;;;;3.08;0.60;;;2.60;80.30;;;;;;5112792;28;20032;-74
2021/04/06 02:29:58;;;;;;;2.80;0.40;;;2.40;80.30;;;;;;5112479;28;20460;-74
2021/04/06 02:32:26;;;;;;;1.88;0.47;;;2.40;80.30;;;;;;5094713;28;20112;-74
2021/04/06 02:34:54;;;;;;;3.30;0.65;;;2.40;80.40;;;;;;5112680;28;20027;-74
2021/04/06 02:37:22;;;;;;;1.20;0.28;;;2.40;80.50;;;;;;5094456;28;20470;-75
2021/04/06 02:39:50;;;;;;;0.30;0.20;;;2.30;80.50;;;;;;5113184;28;20048;-74
2021/04/06 02:42:33;;;;;;;0.95;0.47;;;2.30;81.10;;;;;;5112580;28;20504;-74
2021/04/06 02:45:19;;;;;;;1.02;0.32;;;2.30;80.70;;;;;;5112714;28;20098;-74
2021/04/06 02:47:55;;;;;;;0.40;0.20;;;2.30;80.70;;;;;;5093305;28;20078;-74
2021/04/06 02:50:23;;;;;;;0.57;0.30;;;2.30;80.70;;;;;;5112654;28;20031;-74
2021/04/06 02:52:49;;;;;;;1.83;0.57;;;2.20;80.60;;;;;;5112298;28;20050;-74
2021/04/06 02:55:16;;;;;;;1.45;0.47;;;2.30;80.70;;;;;;5112779;28;20435;-74
2021/04/06 02:57:44;;;;;;;1.27;0.50;;;2.20;80.60;;;;;;5112579;28;20038;-74
2021/04/06 03:00:11;;;;;;;0.50;0.20;;;2.20;80.50;;;;;;5092262;28;20495;-74
2021/04/06 03:02:40;;;;;;;1.92;0.35;;;2.20;80.60;;;;;;5112445;28;20092;-74
2021/04/06 03:05:07;;;;;;;3.10;0.50;;;2.20;80.50;;;;;;5112269;28;20139;-74
2021/04/06 03:07:43;;;;;;;0.65;0.17;;;2.30;80.50;;;;;;5112267;28;20047;-74
2021/04/06 03:10:19;;;;;;;0.93;0.25;;;2.20;80.40;;;;;;5112251;28;20374;-74
2021/04/06 03:12:48;;;;;;;1.65;0.45;;;2.20;80.40;;;;;;5112415;28;20044;-74
2021/04/06 03:15:20;;;;;;;0.32;0.30;;;2.20;80.40;;;;;;5112194;28;20070;-74
2021/04/06 03:17:49;;;;;;;0.85;0.32;;;2.20;80.40;;;;;;5112151;28;20148;-73
2021/04/06 03:20:17;;;;;;;1.60;0.35;;;2.20;80.30;;;;;;5109050;28;20048;-74
2021/04/06 03:22:43;;;;;;;1.13;0.35;;;2.20;80.20;;;;;;5112736;28;20122;-73
2021/04/06 03:25:11;;;;;;;1.02;0.25;;;2.30;80.10;;;;;;5093709;28;20071;-74
2021/04/06 03:27:41;;;;;;;0.20;0.10;;;2.20;79.90;;;;;;5112042;28;20039;-74
2021/04/06 03:30:07;;;;;;;2.00;0.35;;;2.20;79.90;;;;;;5111953;28;20152;-74
2021/04/06 03:32:33;;;;;;;1.40;0.20;;;2.10;80.10;;;;;;5112284;28;20040;-74
2021/04/06 03:34:59;;;;;;;0.13;0.10;;;1.90;80.30;;;;;;5093629;28;20557;-73
2021/04/06 03:37:25;;;;;;;0.32;0.15;;;1.80;80.60;;;;;;5111791;28;20071;-73
2021/04/06 03:39:51;;;;;;;0.77;0.32;;;1.70;80.90;;;;;;5112174;28;20476;-73
2021/04/06 03:42:24;;;;;;;0.30;0.10;;;1.60;81.20;;;;;;5113439;28;20035;-74
2021/04/06 03:44:51;;;;;;;0.85;0.13;;;1.60;81.50;;;;;;5115135;28;20031;-74
2021/04/06 03:47:17;;;;;;;0.17;0.10;;;1.50;81.50;;;;;;5095416;28;20107;-74
2021/04/06 03:49:48;;;;;;;0.60;0.20;;;1.60;81.60;;;;;;5115460;28;20392;-74
2021/04/06 03:52:14;;;;;;;0.70;0.20;;;1.50;81.70;;;;;;5115515;28;20048;-74
2021/04/06 03:54:48;;;;;;;1.20;0.20;;;1.40;81.60;;;;;;5114924;28;20039;-74
2021/04/06 03:57:35;;;;;;;2.22;0.30;;;1.50;81.70;;;;;;5097543;28;20507;-74
2021/04/06 04:00:05;;;;;;;1.75;0.20;;;1.50;81.60;;;;;;5115510;28;20039;-74
2021/04/06 04:02:31;;;;;;;0.47;0.10;;;1.50;81.60;;;;;;5097450;28;20050;-74
2021/04/06 04:04:57;;;;;;;1.10;0.35;;;1.60;81.50;;;;;;5115369;28;20043;-74
2021/04/06 04:07:22;;;;;;;1.40;0.55;;;1.60;81.40;;;;;;5096346;28;20079;-74
2021/04/06 04:09:48;;;;;;;0.52;0.30;;;1.60;81.20;;;;;;5115230;28;20489;-74
2021/04/06 04:12:14;;;;;;;1.35;0.20;;;1.60;81.10;;;;;;5096454;28;20048;-73
2021/04/06 04:14:40;;;;;;;2.42;0.63;;;1.70;81.10;;;;;;5115089;28;20040;-74
2021/04/06 04:17:06;;;;;;;2.65;0.50;;;1.70;81.10;;;;;;5096748;28;20148;-74
2021/04/06 04:19:32;;;;;;;1.90;0.50;;;1.60;81.20;;;;;;5115536;28;20393;-73
2021/04/06 04:21:58;;;;;;;2.60;0.43;;;1.50;81.20;;;;;;5115074;28;20059;-74
2021/04/06 04:24:24;;;;;;;0.45;0.30;;;1.50;81.30;;;;;;5115035;28;20039;-73
2021/04/06 04:26:50;;;;;;;1.95;0.45;;;1.60;81.50;;;;;;5114792;28;20122;-74
2021/04/06 04:29:16;;;;;;;2.50;0.30;;;1.60;81.40;;;;;;5096451;28;20051;-74
2021/04/06 04:31:48;;;;;;;1.95;0.45;;;1.60;81.40;;;;;;5114611;28;20035;-74
2021/04/06 04:34:14;;;;;;;0.77;0.40;;;1.60;81.40;;;;;;5114631;28;20100;-74
2021/04/06 04:36:40;;;;;;;0.65;0.20;;;1.60;81.40;;;;;;5114661;28;20039;-74
2021/04/06 04:39:06;;;;;;;1.00;0.43;;;1.50;81.30;;;;;;5114563;28;20495;-74
2021/04/06 04:41:32;;;;;;;0.22;0.17;;;1.50;81.50;;;;;;5096033;28;20039;-74
2021/04/06 04:43:58;;;;;;;1.35;0.30;;;1.50;81.60;;;;;;5114920;28;20500;-74
2021/04/06 04:46:24;;;;;;;1.15;0.43;;;1.50;81.60;;;;;;5114646;28;20036;-74
2021/04/06 04:48:50;;;;;;;1.73;0.40;;;1.40;81.70;;;;;;5114707;28;20131;-74
2021/04/06 04:51:16;;;;;;;2.75;0.50;;;1.40;81.80;;;;;;5096400;28;20085;-73
2021/04/06 04:53:41;;;;;;;1.48;0.30;;;1.40;81.80;;;;;;5094642;28;20040;-73
2021/04/06 04:56:07;;;;;;;0.95;0.28;;;1.40;81.90;;;;;;5114373;28;20040;-73
2021/04/06 04:58:33;;;;;;;0.73;0.20;;;1.40;82.00;;;;;;5114374;28;20040;-74
2021/04/06 05:00:59;;;;;;;0.47;0.20;;;1.40;82.00;;;;;;5114351;28;20036;-74
2021/04/06 05:03:25;;;;;;;1.67;0.30;;;1.40;82.00;;;;;;5077556;28;20044;-73
2021/04/06 05:05:50;;;;;;;0.10;0.10;;;1.40;82.10;;;;;;5114352;28;20043;-74
2021/04/06 05:08:16;;;;;;;1.00;0.20;;;1.50;82.10;;;;;;5114129;28;20043;-74
2021/04/06 05:10:42;;;;;;;0.75;0.20;;;1.50;82.10;;;;;;5114090;28;20446;-74
2021/04/06 05:13:07;;;;;;;0.73;0.25;;;1.50;82.10;;;;;;5110258;28;20126;-73
2021/04/06 05:15:33;;;;;;;0.28;0.20;;;1.50;82.10;;;;;;5113966;28;20047;-73
2021/04/06 05:17:59;;;;;;;0.22;0.10;;;1.50;82.10;;;;;;5114057;28;20043;-74
2021/04/06 05:20:26;;;;;;;0.38;0.17;;;1.40;82.10;;;;;;5113887;28;20028;-73
2021/04/06 05:22:52;;;;;;;0.65;0.20;;;1.50;82.20;;;;;;5113646;28;20048;-74
2021/04/06 05:25:18;;;;;;;0.30;0.15;;;1.40;82.30;;;;;;5114302;28;20070;-74
2021/04/06 05:27:44;;;;;;;0.45;0.10;;;1.30;82.30;;;;;;5113845;28;20122;-74
2021/04/06 05:30:10;;;;;;;0.17;0.10;;;1.30;82.40;;;;;;5094275;28;20075;-74
2021/04/06 05:32:36;;;;;;;1.42;0.32;;;1.30;82.40;;;;;;5114030;28;20039;-74
2021/04/06 05:35:03;;;;;;;1.05;0.20;;;1.30;82.50;;;;;;5113231;28;20047;-73
2021/04/06 05:37:28;;;;;;;0.10;0.10;;;1.30;82.50;;;;;;5113539;28;20457;-74
2021/04/06 05:39:54;;;;;;;0.20;0.20;;;1.30;82.50;;;;;;5113656;28;20115;-74
2021/04/06 05:42:21;;;;;;;0.38;0.20;;;1.30;82.60;;;;;;5113690;28;20036;-74
2021/04/06 05:44:47;;;;;;;1.23;0.30;;;1.20;82.50;;;;;;5113286;28;20039;-74
2021/04/06 05:47:39;;;;;;;0.05;0.00;;;1.20;82.50;;;;;;5113539;28;20470;-74
2021/04/06 05:50:06;;;;;;;0.70;0.20;;;1.20;82.60;;;;;;5113419;28;20036;-74
2021/04/06 05:52:33;;;;;;;0.00;0.00;;;1.30;82.50;;;;;;5094866;28;20292;-74
2021/04/06 05:55:01;;;;;;;1.23;0.20;;;1.30;82.50;;;;;;5113455;28;20063;-73
2021/04/06 05:57:28;;;;;;;0.10;0.08;;;1.40;82.40;;;;;;5113365;28;20062;-74
2021/04/06 05:59:53;;;;;;;0.82;0.30;;;1.40;82.30;;;;;;5113272;28;20482;-74
2021/04/06 06:02:20;;;;;;;0.30;0.30;;;1.40;82.20;;;;;;5113199;28;20042;-74
2021/04/06 06:04:46;;;;;;;0.28;0.20;;;1.50;82.20;;;;;;5112386;28;20038;-74
2021/04/06 06:07:12;;;;;;;1.17;0.30;;;1.60;82.10;;;;;;5113093;28;20040;-73
2021/04/06 06:09:38;;;;;;;1.15;0.32;;;1.60;81.90;;;;;;5113206;28;20051;-73
2021/04/06 06:12:06;;;;;;;1.00;0.32;;;1.70;81.70;;;;;;5093613;28;20105;-74
2021/04/06 06:14:39;;;;;;;0.47;0.20;;;1.80;81.40;;;;;;5112868;28;20112;-74
2021/04/06 06:17:17;;;;;;;1.15;0.45;;;2.00;81.20;;;;;;5113036;28;20434;-74
2021/04/06 06:19:44;;;;;;;2.83;0.45;;;2.10;80.90;;;;;;5113116;28;20042;-73
2021/04/06 06:22:21;;;;;;;1.10;0.28;;;2.20;80.60;;;;;;5112857;28;20082;-73
2021/04/06 06:24:49;;;;;;;2.58;0.40;;;2.20;80.60;;;;;;5113470;28;20432;-74
2021/04/06 06:27:36;;;;;;;1.00;0.35;;;2.20;80.50;;;;;;5094589;28;20040;-73
2021/04/06 06:30:23;;;;;;;1.75;0.40;;;2.20;80.50;;;;;;5113461;28;20043;-74
2021/04/06 06:32:49;;;;;;;1.33;0.45;;;2.30;80.60;;;;;;5112505;28;20048;-74
2021/04/06 06:35:34;;;;;;;0.60;0.40;;;2.40;81.20;;;;;;5112554;28;20031;-74
2021/04/06 06:38:17;;;;;;;2.40;0.47;;;2.30;80.40;;;;;;5112592;28;20043;-74
2021/04/06 06:40:44;;;;;;;2.58;0.40;;;2.40;80.30;;;;;;5113110;28;20435;-74
2021/04/06 06:43:13;;;;;;;2.15;0.32;;;2.30;80.30;;;;;;5094519;28;20127;-74
2021/04/06 06:45:40;;;;;;;1.45;0.30;;;2.40;80.50;;;;;;5113319;28;20100;-74
2021/04/06 06:48:06;;;;;;;1.80;0.30;;;2.40;80.50;;;;;;5113150;28;20040;-73
2021/04/06 06:50:46;;;;;;;0.80;0.32;;;2.40;80.50;;;;;;5112322;28;20096;-75
2021/04/06 06:53:13;;;;;;;0.77;0.30;;;2.40;81.20;;;;;;5094154;28;20055;-75
2021/04/06 06:55:39;;;;;;;1.02;0.55;;;2.50;80.50;;;;;;5112526;28;20070;-77
2021/04/06 06:58:06;;;;;;;1.35;0.40;;;2.60;80.60;;;;;;5094292;28;20042;-77
2021/04/06 07:00:32;;;;;;;0.95;0.20;;;2.60;80.40;;;;;;5112450;28;20086;-76
2021/04/06 07:02:58;;;;;;;1.48;0.50;;;2.70;80.20;;;;;;5112653;28;20051;-75
2021/04/06 07:05:26;;;;;;;1.05;0.40;;;2.70;80.00;;;;;;5112544;28;20040;-75
2021/04/06 07:08:09;;;;;;;0.88;0.40;;;2.70;80.10;;;;;;5112320;28;20051;-76
2021/04/06 07:10:39;;;;;;;0.82;0.25;;;2.80;80.30;;;;;;5112586;28;20044;-75
2021/04/06 07:13:12;;;;;;;2.20;0.40;;;2.90;80.10;;;;;;5112178;28;20036;-76
2021/04/06 07:15:41;;;;;;;3.25;0.63;;;3.10;79.90;;;;;;5062024;28;20032;-75
2021/04/06 07:18:11;;;;;;;0.90;0.40;;;3.10;79.60;;;;;;5116386;28;20036;-76
2021/04/06 07:20:40;;;;;;;0.75;0.43;;;3.10;79.40;;;;;;5116141;28;20478;-76
2021/04/06 07:23:09;;;;;;;2.03;0.43;;;3.20;79.40;;;;;;5119532;28;20071;-78
2021/04/06 07:25:35;;;;;;;2.40;0.60;;;3.10;79.40;;;;;;5079712;28;20050;-78
2021/04/06 07:28:14;;;;;;;0.60;0.30;;;3.30;79.60;;;;;;5082219;28;20396;-78
2021/04/06 07:30:41;;;;;;;0.95;0.20;;;3.20;79.40;;;;;;5076833;28;20039;-76
2021/04/06 07:33:11;;;;;;;1.38;0.32;;;3.30;79.40;;;;;;5072894;28;20482;-77
2021/04/06 07:35:37;;;;;;;3.92;0.50;;;3.50;79.30;;;;;;5115674;28;20578;-77
2021/04/06 07:38:03;;;;;;;1.50;0.45;;;3.40;78.90;;;;;;5096985;28;20040;-78
2021/04/06 07:40:32;;;;;;;2.70;0.68;;;3.50;78.90;;;;;;5097885;28;20046;-79
2021/04/06 07:42:58;;;;;;;2.42;0.52;;;3.50;79.10;;;;;;5099289;28;20083;-79
2021/04/06 07:45:42;;;;;;;1.65;0.60;;;3.60;79.00;;;;;;5120214;28;20174;-81
2021/04/06 07:48:12;;;;;;;1.58;0.70;;;3.70;79.00;;;;;;5099901;28;20074;-81
2021/04/06 07:54:10;;;;;;;2.38;0.52;;;3.90;78.70;;;;;;5057395;28;20537;-79
2021/04/06 07:56:58;;;;;;;0.88;0.50;;;4.00;78.30;;;;;;5039216;28;20060;-84
2021/04/06 07:59:43;;;;;;;1.95;0.52;;;3.90;78.10;;;;;;5037671;28;20041;-83
2021/04/06 08:02:30;;;;;;;1.38;0.50;;;3.70;78.50;;;;;;5036467;28;20538;-78
2021/04/06 08:04:59;;;;;;;2.53;0.60;;;3.70;78.90;;;;;;5051709;28;20048;-75
2021/04/06 08:07:32;;;;;;;1.88;0.60;;;3.60;78.90;;;;;;5056231;28;20063;-79
2021/04/06 08:10:02;;;;;;;0.80;0.38;;;3.50;79.20;;;;;;5024787;28;20067;-77
2021/04/06 08:12:33;;;;;;;1.65;0.50;;;3.50;79.60;;;;;;5039565;28;20041;-80
2021/04/06 08:15:10;;;;;;;2.05;0.38;;;3.60;79.70;;;;;;5055983;28;20047;-82
2021/04/06 08:17:42;;;;;;;2.35;0.30;;;3.70;79.50;;;;;;5026499;28;20148;-79
2021/04/06 08:20:22;;;;;;;0.43;0.30;;;3.90;79.30;;;;;;5058332;28;20037;-79
2021/04/06 08:22:54;;;;;;;0.65;0.30;;;4.10;79.10;;;;;;5054309;28;20119;-79
2021/04/06 08:25:37;;;;;;;0.38;0.38;;;4.20;78.90;;;;;;5105695;28;20115;-79
2021/04/06 08:28:05;;;;;;;1.38;0.40;;;4.50;78.60;;;;;;5100689;28;20043;-79
2021/04/06 08:30:35;;;;;;;1.98;0.45;;;4.60;77.90;;;;;;5117274;28;20127;-78
2021/04/06 08:33:25;;;;;;;1.58;0.45;;;4.80;77.60;;;;;;5117285;28;20507;-78
2021/04/06 08:36:05;;;;;;;1.25;0.45;;;5.00;77.20;;;;;;5104624;28;20043;-80
2021/04/06 08:38:47;;;;;;;0.68;0.38;;;5.00;76.80;;;;;;5115518;28;20051;-78
2021/04/06 08:41:30;;;;;;;;;;;4.70;76.90;;;;;;5096968;28;20043;-79
2021/04/06 08:43:58;;;;;;;1.10;0.35;;;4.60;77.30;;;;;;5115178;28;19912;-77
2021/04/06 08:46:48;;;;;;;0.88;0.50;;;4.40;77.70;;;;;;5114398;28;20038;-79
2021/04/06 08:49:20;;;;;;;2.58;0.45;;;4.30;78.20;;;;;;5114591;28;20042;-77
2021/04/06 08:51:51;;;;;;;0.45;0.20;;;4.30;78.60;;;;;;5114618;28;20036;-75
2021/04/06 08:54:21;;;;;;;1.75;0.50;;;4.40;78.70;;;;;;5114547;28;20040;-78
2021/04/06 08:56:52;;;;;;;0.88;0.38;;;4.70;78.30;;;;;;5112594;28;20043;-75
2021/04/06 08:59:23;;;;;;;1.42;0.50;;;4.80;77.70;;;;;;5115050;28;20118;-78
2021/04/06 09:01:55;;;;;;;1.90;0.50;;;5.00;77.50;;;;;;5096050;28;20039;-78
2021/04/06 09:04:25;;;;;;;0.85;0.20;;;5.20;77.20;;;;;;5116304;28;20366;-77
2021/04/06 09:06:52;;;;;;;1.40;0.50;;;5.40;76.50;;;;;;5115960;28;20123;-81
2021/04/06 09:09:21;;;;;;;1.02;0.40;;;5.40;76.80;;;;;;5096483;28;20134;-78
2021/04/06 09:11:49;;;;;;;1.55;0.40;;;5.10;76.20;;;;;;5096165;28;20094;-74
2021/04/06 09:14:16;;;;;;;2.97;0.40;;;5.00;77.10;;;;;;5113991;28;20553;-75
2021/04/06 09:16:42;;;;;;;0.22;0.20;;;5.00;77.60;;;;;;5114659;28;20397;-76
2021/04/06 09:19:14;;;;;;;1.08;0.20;;;5.00;77.50;;;;;;5115480;28;20031;-76
2021/04/06 09:21:44;;;;;;;0.55;0.30;;;5.10;77.40;;;;;;5098979;28;20118;-77
2021/04/06 09:24:14;;;;;;;0.50;0.15;;;5.20;77.10;;;;;;5094906;28;20040;-79
2021/04/06 09:26:41;;;;;;;0.47;0.22;;;5.20;76.90;;;;;;5096089;28;20047;-76
2021/04/06 09:29:11;;;;;;;1.75;0.38;;;5.40;76.90;;;;;;5123312;28;20074;-76
2021/04/06 09:31:40;;;;;;;0.70;0.38;;;5.60;76.40;;;;;;5122697;28;20121;-76
2021/04/06 09:34:13;;;;;;;0.80;0.30;;;5.70;76.40;;;;;;5106089;28;20480;-79
2021/04/06 09:36:42;;;;;;;0.57;0.30;;;5.90;76.70;;;;;;5102350;28;20110;-76
2021/04/06 09:39:14;;;;;;;0.85;0.30;;;6.00;75.50;;;;;;5118478;28;20035;-74
2021/04/06 09:41:42;;;;;;;1.63;0.40;;;6.20;75.20;;;;;;5099288;28;20069;-76
2021/04/06 09:44:12;;;;;;;0.98;0.43;;;6.30;75.10;;;;;;5115705;28;20132;-78
2021/04/06 09:46:49;;;;;;;0.70;0.40;;;6.30;74.00;;;;;;5116881;28;20042;-78
2021/04/06 09:49:16;;;;;;;0.10;0.10;;;6.00;73.90;;;;;;5098679;28;20058;-78
2021/04/06 09:51:47;;;;;;;0.85;0.30;;;5.60;74.30;;;;;;5117281;28;20047;-78
2021/04/06 09:54:14;;;;;;;1.38;0.20;;;5.20;75.20;;;;;;5096855;28;20048;-78
2021/04/06 09:56:40;;;;;;;1.88;0.30;;;4.90;76.30;;;;;;5078573;28;20118;-75
2021/04/06 09:59:07;;;;;;;0.20;0.20;;;4.80;76.70;;;;;;5113948;28;20032;-76
2021/04/06 10:01:33;;;;;;;0.45;0.20;;;4.70;76.90;;;;;;5113721;28;20085;-77
2021/04/06 10:04:01;;;;;;;0.38;0.30;;;4.80;77.20;;;;;;5116417;28;20047;-77
2021/04/06 10:06:44;;;;;;;0.63;0.30;;;4.90;77.00;;;;;;5114771;28;20067;-76
2021/04/06 10:09:19;;;;;;;1.20;0.50;;;4.80;76.50;;;;;;5099066;28;20047;-78
2021/04/06 10:11:46;;;;;;;1.35;0.38;;;4.90;76.20;;;;;;5116945;28;20131;-75
2021/04/06 10:14:12;;;;;;;1.10;0.40;;;5.00;76.20;;;;;;5118016;28;20035;-76
2021/04/06 10:16:38;;;;;;;0.45;0.30;;;5.10;76.00;;;;;;5113644;28;20123;-74
2021/04/06 10:19:18;;;;;;;1.13;0.25;;;5.20;75.70;;;;;;5113691;28;20477;-77
2021/04/06 10:21:43;;;;;;;0.73;0.20;;;5.40;75.60;;;;;;5113283;28;20088;-75
2021/04/06 10:24:10;;;;;;;0.52;0.38;;;5.50;75.20;;;;;;5113016;28;20047;-76
2021/04/06 10:26:35;;;;;;;1.55;0.50;;;5.60;75.00;;;;;;5113032;28;20046;-78
2021/04/06 10:29:07;;;;;;;1.85;0.40;;;5.70;75.00;;;;;;5119416;28;20036;-79
2021/04/06 10:31:50;;;;;;;1.02;0.57;;;5.80;74.40;;;;;;5095101;28;20400;-78
2021/04/06 10:34:19;;;;;;;1.30;0.60;;;5.80;74.40;;;;;;5114168;28;20082;-78
2021/04/06 10:37:03;;;;;;;1.27;0.40;;;6.10;74.20;;;;;;5078688;28;20035;-77
2021/04/06 10:39:32;;;;;;;1.17;0.50;;;6.00;73.40;;;;;;5094514;28;20146;-77
2021/04/06 10:41:58;;;;;;;0.52;0.38;;;6.10;73.50;;;;;;5113318;28;20110;-76
2021/04/06 10:44:25;;;;;;;1.15;0.35;;;6.20;73.50;;;;;;5113199;28;20544;-77
2021/04/06 10:46:53;;;;;;;0.93;0.40;;;6.20;73.40;;;;;;5113406;28;20115;-78
2021/04/06 10:49:19;;;;;;;0.57;0.43;;;6.10;73.20;;;;;;5113250;28;20047;-78
2021/04/06 10:51:50;;;;;;;0.57;0.38;;;6.10;73.30;;;;;;5113048;28;20040;-78
2021/04/06 10:54:18;;;;;;;0.75;0.50;;;5.90;72.80;;;;;;5094708;28;20135;-78
2021/04/06 10:56:50;;;;;;;0.45;0.35;;;5.60;73.40;;;;;;5113341;28;20031;-77
2021/04/06 10:59:31;;;;;;;;;;;5.00;74.30;;;;;;5113485;28;20043;-78
2021/04/06 11:01:57;;;;;;;1.60;0.50;;;4.50;75.50;;;;;;5112539;28;20411;-77
2021/04/06 11:04:26;;;;;;;0.57;0.28;;;4.10;76.80;;;;;;5112710;28;20081;-78
2021/04/06 11:07:01;;;;;;;0.50;0.20;;;3.80;77.60;;;;;;5093797;28;20059;-78
2021/04/06 11:09:44;;;;;;;0.85;0.20;;;3.70;78.00;;;;;;5112624;28;20485;-78
2021/04/06 11:12:12;;;;;;;2.35;0.30;;;3.80;78.30;;;;;;5093796;28;20051;-79
2021/04/06 11:14:40;;;;;;;0.40;0.30;;;3.80;78.20;;;;;;5077306;28;20404;-78
2021/04/06 11:17:07;;;;;;;1.45;0.20;;;4.00;78.10;;;;;;5113144;28;20114;-78
2021/04/06 11:19:36;;;;;;;1.90;0.20;;;4.30;77.80;;;;;;5097254;28;20043;-77
2021/04/06 11:22:08;;;;;;;0.30;0.20;;;4.60;77.10;;;;;;5117457;28;20036;-75
2021/04/06 11:24:35;;;;;;;1.65;0.20;;;4.90;76.60;;;;;;5113196;28;20431;-76
2021/04/06 11:27:03;;;;;;;0.30;0.30;;;5.10;76.00;;;;;;5115015;28;20058;-78
2021/04/06 11:29:32;;;;;;;0.10;0.10;;;5.30;75.60;;;;;;5100181;28;20040;-78
2021/04/06 11:32:02;;;;;;;1.23;0.30;;;5.60;75.10;;;;;;5103319;28;20039;-78
2021/04/06 11:37:20;;;;;;;1.05;0.43;;;6.10;74.00;;;;;;5056426;28;20048;-77
2021/04/06 11:39:47;;;;;;;2.28;0.50;;;6.30;73.20;;;;;;5057729;28;20101;-79
2021/04/06 11:42:15;;;;;;;2.60;0.70;;;6.60;72.70;;;;;;5017835;28;20045;-77
2021/04/06 11:44:42;;;;;;;3.25;0.60;;;6.70;72.00;;;;;;5042702;28;20055;-80
2021/04/06 11:47:09;;;;;;;2.25;0.70;;;6.40;71.80;;;;;;5024683;28;20534;-80
2021/04/06 11:49:37;;;;;;;0.35;0.25;;;5.90;72.20;;;;;;5039290;28;20573;-77
2021/04/06 11:52:08;;;;;;;0.60;0.22;;;5.40;72.90;;;;;;5053587;28;20049;-80
2021/04/06 11:54:34;;;;;;;0.70;0.30;;;4.80;74.10;;;;;;5056166;28;20053;-77
2021/04/06 11:57:00;;;;;;;0.28;0.10;;;4.40;75.30;;;;;;5033574;28;20048;-79
2021/04/06 11:59:25;;;;;;;0.38;0.22;;;4.00;76.20;;;;;;5034840;28;20037;-79
2021/04/06 12:01:51;;;;;;;0.52;0.10;;;3.80;77.10;;;;;;5051874;28;20587;-78
2021/04/06 12:04:17;;;;;;;0.20;0.20;;;3.60;77.40;;;;;;5053017;28;20075;-79
2021/04/06 12:06:43;;;;;;;0.35;0.10;;;3.50;77.50;;;;;;5058397;28;20068;-79
2021/04/06 12:09:28;;;;;;;0.15;0.10;;;3.60;77.50;;;;;;5065389;28;20043;-85
2021/04/06 12:12:29;;;;;;;0.55;0.30;;;3.70;77.40;;;;;;5121965;28;20044;-86
2021/04/06 12:15:21;;;;;;;0.93;0.20;;;3.70;77.10;;;;;;5085249;28;20054;-84
2021/04/06 12:17:49;;;;;;;0.15;0.10;;;3.80;76.70;;;;;;5101216;28;20104;-84
2021/04/06 12:20:37;;;;;;;0.40;0.20;;;3.90;76.40;;;;;;5104209;28;20040;-88
2021/04/06 12:26:27;;;;;;;0.70;0.10;;;4.00;76.00;;;;;;4973758;28;20058;-85
2021/04/06 12:31:45;;;;;;;0.45;0.20;;;4.50;75.60;;;;;;4955037;28;20517;-83
2021/04/06 12:37:24;;;;;;;2.63;0.60;;;5.00;74.60;;;;;;4939695;28;20397;-79
2021/04/06 12:39:52;;;;;;;1.63;0.43;;;5.40;73.90;;;;;;4974782;28;20053;-83
2021/04/06 12:42:18;;;;;;;2.00;0.50;;;5.70;73.60;;;;;;4919926;29;20407;-78
2021/04/06 12:44:44;;;;;;;1.10;0.40;;;6.00;73.10;;;;;;4936740;29;20209;-83
2021/04/06 12:47:09;;;;;;;1.20;0.40;;;6.20;72.30;;;;;;4926971;29;20142;-77
2021/04/06 12:49:35;;;;;;;1.13;0.40;;;6.40;72.10;;;;;;4939133;29;20048;-79
2021/04/06 12:55:59;;;;;;;1.63;0.60;;;6.40;71.50;;;;;;4898663;28;20550;-84
2021/04/06 12:58:25;;;;;;;1.38;0.40;;;6.20;71.90;;;;;;4973185;28;20482;-76
2021/04/06 13:00:50;;;;;;;2.15;0.30;;;6.00;72.20;;;;;;4973036;28;20142;-78
2021/04/06 13:03:20;;;;;;;1.77;0.50;;;5.50;72.50;;;;;;4987012;28;20045;-80
2021/04/06 13:05:49;;;;;;;0.20;0.20;;;5.10;73.40;;;;;;4993786;28;20125;-81
2021/04/06 13:08:15;;;;;;;0.65;0.20;;;4.80;74.30;;;;;;4996847;28;20412;-80
2021/04/06 13:10:42;;;;;;;0.20;0.20;;;4.60;74.70;;;;;;4995373;28;20038;-79
2021/04/06 13:13:24;;;;;;;0.35;0.20;;;4.50;75.00;;;;;;5004285;28;20535;-80
2021/04/06 13:15:50;;;;;;;0.47;0.17;;;4.40;75.70;;;;;;5032374;28;20384;-80
2021/04/06 13:18:16;;;;;;;0.43;0.10;;;4.40;75.10;;;;;;5033686;28;20036;-80
2021/04/06 13:20:44;;;;;;;0.10;0.10;;;4.40;74.90;;;;;;5031996;28;20063;-81
2021/04/06 13:23:10;;;;;;;0.35;0.10;;;4.60;74.80;;;;;;5015073;28;20065;-79
2021/04/06 13:25:36;;;;;;;0.60;0.30;;;4.60;74.50;;;;;;5032056;28;20123;-81
2021/04/06 13:28:03;;;;;;;0.60;0.30;;;4.60;74.30;;;;;;5031635;28;20050;-81
2021/04/06 13:30:29;;;;;;;0.55;0.22;;;4.50;74.10;;;;;;5031732;28;20095;-80